C. Angelo — WCZ5866 — position and weather

sailwx.info

Track history (hours):
 
Tides and Currents Weather Stations Pressure Air Temp Water Temp Dewpoint Dewpoint Depression Visibility Wind Speed Wind Dir Waves Ship Positions

C. Angelo

More information available from US FCC via Universal Licensing System and Coast Guard Vessel Documentation Center.

Last reported at 2014-Jul-27 19:34 UTC. Time now 2014-Jul-28 12:24 UTC.
Position N 33°58' W 076°48'.

Length 30 m; draft 4.1 m.

Type: Tug. MMSI: 366988420.

Date/timePositionNaut miles runAvg speedWind from/ knotsBaromVisibWave heightAir tempDewpointWater temp
2014-Jul-27 19:34N 33°58' W 076°48'9 8.4
2014-Jul-27 18:29N 34°03' W 076°40'8 8.4
2014-Jul-27 17:31N 34°08' W 076°32'9 8.2
2014-Jul-27 16:27N 34°14' W 076°24'51 8.5
2014-Jul-27 10:29N 34°52' W 075°43'11 8.3
2014-Jul-27 09:07N 34°58' W 075°32'5 8.1
2014-Jul-27 08:27N 35°02' W 075°27'9 7.3
2014-Jul-27 07:11N 35°10' W 075°20'192 8.5
2014-Jul-26 08:32N 38°19' W 074°48'9 9.3
2014-Jul-26 07:32N 38°28' W 074°44'10 9.1
2014-Jul-26 06:28N 38°37' W 074°40'8 9.1
2014-Jul-26 05:34N 38°45' W 074°37'12 9.1
2014-Jul-26 04:14N 38°56' W 074°30'6 9.5
2014-Jul-26 03:33N 39°02' W 074°26'10 9.5
2014-Jul-26 02:34N 39°10' W 074°21'9 9.3
2014-Jul-26 01:33N 39°18' W 074°15'9 9.1
2014-Jul-26 00:33N 39°26' W 074°09'9 9.0
2014-Jul-25 23:34N 39°34' W 074°03'9 9.1
2014-Jul-25 22:33N 39°43' W 073°58'9 9.2
2014-Jul-25 21:33N 39°50' W 073°51'11 9.2
2014-Jul-25 20:23N 39°58' W 073°42'8 9.1
2014-Jul-25 19:32N 40°04' W 073°35'11 9.5
2014-Jul-25 18:20N 40°13' W 073°26'8 9.5
2014-Jul-25 17:30N 40°18' W 073°18'9 9.6
2014-Jul-25 16:32N 40°24' W 073°09'10 9.8
2014-Jul-25 15:33N 40°31' W 073°00'10 9.8
2014-Jul-25 14:32N 40°38' W 072°51'9 9.7
2014-Jul-25 13:34N 40°43' W 072°40'10 9.7
2014-Jul-25 12:33N 40°47' W 072°28'10 9.5
2014-Jul-25 11:33N 40°51' W 072°17'10 9.6
2014-Jul-25 10:33N 40°55' W 072°05'10 9.6
2014-Jul-25 09:34N 40°59' W 071°54'9 9.2
2014-Jul-25 08:33N 41°04' W 071°44'10 9.8
2014-Jul-25 07:33N 41°14' W 071°40'8 8.0
2014-Jul-25 06:33N 41°17' W 071°31'8 8.5
2014-Jul-25 05:34N 41°24' W 071°25'8 8.4
2014-Jul-25 04:33N 41°32' W 071°20'9 8.8
2014-Jul-25 03:33N 41°41' W 071°19'8 8.1
2014-Jul-25 02:33N 41°48' W 071°23'0 0.1
2014-Jul-25 01:33N 41°48' W 071°23'0 0.0
2014-Jul-25 00:33N 41°48' W 071°23'0 0.1
2014-Jul-24 23:30N 41°48' W 071°23'0 0.1
2014-Jul-24 22:33N 41°48' W 071°23'0 0.0
2014-Jul-24 21:33N 41°48' W 071°23'0 0.0
2014-Jul-24 20:33N 41°48' W 071°23'0 0.0
2014-Jul-24 17:25N 41°48' W 071°23'0 0.0
2014-Jul-24 16:34N 41°48' W 071°23'0 0.0
2014-Jul-24 15:34N 41°48' W 071°23'0 0.0
2014-Jul-24 14:33N 41°48' W 071°23'0 0.0
2014-Jul-24 13:34N 41°48' W 071°23'0 0.0
2014-Jul-24 12:33N 41°48' W 071°23'0 0.0
2014-Jul-24 11:33N 41°48' W 071°23'0 0.0
2014-Jul-24 10:33N 41°48' W 071°23'0 0.0
2014-Jul-24 09:34N 41°48' W 071°23'0 0.0
2014-Jul-24 08:34N 41°48' W 071°23'0 0.0
2014-Jul-24 07:34N 41°48' W 071°23'0 0.0
2014-Jul-24 06:29N 41°48' W 071°23'0 0.0
2014-Jul-24 05:34N 41°48' W 071°23'0 0.0
2014-Jul-24 04:31N 41°48' W 071°23'0 0.0
2014-Jul-24 03:21N 41°48' W 071°23'0 0.0
2014-Jul-24 02:34N 41°48' W 071°23'0 0.0
2014-Jul-24 01:34N 41°48' W 071°23'0 0.0
2014-Jul-24 00:34N 41°48' W 071°23'0 0.0
2014-Jul-23 23:31N 41°48' W 071°23'0 0.0
2014-Jul-23 22:32N 41°48' W 071°23'0 0.0
2014-Jul-23 21:33N 41°48' W 071°23'0 0.1
2014-Jul-23 20:34N 41°48' W 071°23'0 0.0
2014-Jul-23 19:34N 41°48' W 071°23'0 0.0
2014-Jul-23 17:17N 41°48' W 071°23'0 0.0
2014-Jul-23 16:32N 41°48' W 071°23'0 0.0
2014-Jul-23 15:30N 41°48' W 071°23'0 0.0
2014-Jul-23 14:30N 41°48' W 071°23'0 0.0
2014-Jul-23 12:27N 41°48' W 071°23'0 0.0
2014-Jul-23 10:29N 41°48' W 071°23'0 0.0
2014-Jul-23 07:33N 41°48' W 071°23'0 0.0
2014-Jul-23 06:33N 41°48' W 071°23'0 0.0
2014-Jul-23 05:27N 41°48' W 071°23'0 0.0
2014-Jul-23 04:33N 41°48' W 071°23'0 0.0
2014-Jul-23 03:32N 41°48' W 071°23'0 0.0
2014-Jul-23 02:33N 41°48' W 071°23'0 0.0
2014-Jul-23 01:33N 41°48' W 071°23'0 0.0
2014-Jul-23 00:33N 41°48' W 071°23'0 0.0
2014-Jul-22 23:33N 41°48' W 071°23'0 0.0
2014-Jul-22 22:31N 41°48' W 071°23'2 1.7
2014-Jul-22 21:33N 41°47' W 071°22'6 5.8
2014-Jul-22 20:33N 41°41' W 071°19'7 6.6
2014-Jul-22 19:33N 41°35' W 071°19'5 4.8
2014-Jul-22 18:33N 41°30' W 071°21'5 5.4
2014-Jul-22 17:33N 41°25' W 071°24'7 7.0
2014-Jul-22 16:33N 41°18' W 071°26'7 6.6
2014-Jul-22 15:28N 41°12' W 071°29'6 6.2
2014-Jul-22 14:34N 41°07' W 071°33'7 6.5
2014-Jul-22 13:33N 41°02' W 071°39'6 6.5
2014-Jul-22 12:34N 40°58' W 071°45'6 6.4
2014-Jul-22 11:34N 40°53' W 071°51'6 6.3
2014-Jul-22 10:34N 40°48' W 071°57'7 6.5
2014-Jul-22 09:33N 40°44' W 072°03'7 6.6
2014-Jul-22 08:33N 40°39' W 072°09'7 6.6
2014-Jul-22 07:33N 40°34' W 072°15'7 6.5
2014-Jul-22 06:34N 40°30' W 072°21'6 6.4
2014-Jul-22 05:34N 40°25' W 072°27'6 6.4
2014-Jul-22 04:34N 40°21' W 072°33'6 6.3
2014-Jul-22 03:33N 40°16' W 072°39'7 6.5
2014-Jul-22 02:33N 40°12' W 072°45'7 6.9
2014-Jul-22 01:34N 40°07' W 072°51'7 7.1
2014-Jul-22 00:33N 40°02' W 072°58'7 7.0
2014-Jul-21 23:34N 39°57' W 073°05'7 7.2
2014-Jul-21 22:33N 39°52' W 073°12'7 6.7
2014-Jul-21 21:31N 39°48' W 073°18'6 6.3
2014-Jul-21 20:34N 39°44' W 073°25'2 6.5
2014-Jul-21 20:18N 39°43' W 073°26'5 6.6
2014-Jul-21 19:32N 39°40' W 073°31'6 6.4
2014-Jul-21 18:33N 39°35' W 073°37'6 6.1
2014-Jul-21 17:33N 39°31' W 073°43'6 6.0
2014-Jul-21 16:34N 39°27' W 073°48'6 5.9
2014-Jul-21 15:32N 39°23' W 073°54'6 6.0
2014-Jul-21 14:27N 39°18' W 073°60'  
Track history (hours):
 
Tides and Currents Weather Stations Pressure Air Temp Water Temp Dewpoint Dewpoint Depression Visibility Wind Speed Wind Dir Waves Ship Positions

C. Angelo

More information available from US FCC via Universal Licensing System and Coast Guard Vessel Documentation Center.

Last reported at 2014-Jul-27 19:34 UTC. Time now 2014-Jul-28 12:24 UTC.
Position N 33°58' W 076°48'.

Length 30 m; draft 4.1 m.

Type: Tug. MMSI: 366988420.

Date/timePositionNaut miles runAvg speedWind from/ knotsBaromVisibWave heightAir tempDewpointWater temp
2014-Jul-27 19:34N 33°58' W 076°48'9 8.4
2014-Jul-27 18:29N 34°03' W 076°40'8 8.4
2014-Jul-27 17:31N 34°08' W 076°32'9 8.2
2014-Jul-27 16:27N 34°14' W 076°24'51 8.5
2014-Jul-27 10:29N 34°52' W 075°43'11 8.3
2014-Jul-27 09:07N 34°58' W 075°32'5 8.1
2014-Jul-27 08:27N 35°02' W 075°27'9 7.3
2014-Jul-27 07:11N 35°10' W 075°20'192 8.5
2014-Jul-26 08:32N 38°19' W 074°48'9 9.3
2014-Jul-26 07:32N 38°28' W 074°44'10 9.1
2014-Jul-26 06:28N 38°37' W 074°40'8 9.1
2014-Jul-26 05:34N 38°45' W 074°37'12 9.1
2014-Jul-26 04:14N 38°56' W 074°30'6 9.5
2014-Jul-26 03:33N 39°02' W 074°26'10 9.5
2014-Jul-26 02:34N 39°10' W 074°21'9 9.3
2014-Jul-26 01:33N 39°18' W 074°15'9 9.1
2014-Jul-26 00:33N 39°26' W 074°09'9 9.0
2014-Jul-25 23:34N 39°34' W 074°03'9 9.1
2014-Jul-25 22:33N 39°43' W 073°58'9 9.2
2014-Jul-25 21:33N 39°50' W 073°51'11 9.2
2014-Jul-25 20:23N 39°58' W 073°42'8 9.1
2014-Jul-25 19:32N 40°04' W 073°35'11 9.5
2014-Jul-25 18:20N 40°13' W 073°26'8 9.5
2014-Jul-25 17:30N 40°18' W 073°18'9 9.6
2014-Jul-25 16:32N 40°24' W 073°09'10 9.8
2014-Jul-25 15:33N 40°31' W 073°00'10 9.8
2014-Jul-25 14:32N 40°38' W 072°51'9 9.7
2014-Jul-25 13:34N 40°43' W 072°40'10 9.7
2014-Jul-25 12:33N 40°47' W 072°28'10 9.5
2014-Jul-25 11:33N 40°51' W 072°17'10 9.6
2014-Jul-25 10:33N 40°55' W 072°05'10 9.6
2014-Jul-25 09:34N 40°59' W 071°54'9 9.2
2014-Jul-25 08:33N 41°04' W 071°44'10 9.8
2014-Jul-25 07:33N 41°14' W 071°40'8 8.0
2014-Jul-25 06:33N 41°17' W 071°31'8 8.5
2014-Jul-25 05:34N 41°24' W 071°25'8 8.4
2014-Jul-25 04:33N 41°32' W 071°20'9 8.8
2014-Jul-25 03:33N 41°41' W 071°19'8 8.1
2014-Jul-25 02:33N 41°48' W 071°23'0 0.1
2014-Jul-25 01:33N 41°48' W 071°23'0 0.0
2014-Jul-25 00:33N 41°48' W 071°23'0 0.1
2014-Jul-24 23:30N 41°48' W 071°23'0 0.1
2014-Jul-24 22:33N 41°48' W 071°23'0 0.0
2014-Jul-24 21:33N 41°48' W 071°23'0 0.0
2014-Jul-24 20:33N 41°48' W 071°23'0 0.0
2014-Jul-24 17:25N 41°48' W 071°23'0 0.0
2014-Jul-24 16:34N 41°48' W 071°23'0 0.0
2014-Jul-24 15:34N 41°48' W 071°23'0 0.0
2014-Jul-24 14:33N 41°48' W 071°23'0 0.0
2014-Jul-24 13:34N 41°48' W 071°23'0 0.0
2014-Jul-24 12:33N 41°48' W 071°23'0 0.0
2014-Jul-24 11:33N 41°48' W 071°23'0 0.0
2014-Jul-24 10:33N 41°48' W 071°23'0 0.0
2014-Jul-24 09:34N 41°48' W 071°23'0 0.0
2014-Jul-24 08:34N 41°48' W 071°23'0 0.0
2014-Jul-24 07:34N 41°48' W 071°23'0 0.0
2014-Jul-24 06:29N 41°48' W 071°23'0 0.0
2014-Jul-24 05:34N 41°48' W 071°23'0 0.0
2014-Jul-24 04:31N 41°48' W 071°23'0 0.0
2014-Jul-24 03:21N 41°48' W 071°23'0 0.0
2014-Jul-24 02:34N 41°48' W 071°23'0 0.0
2014-Jul-24 01:34N 41°48' W 071°23'0 0.0
2014-Jul-24 00:34N 41°48' W 071°23'0 0.0
2014-Jul-23 23:31N 41°48' W 071°23'0 0.0
2014-Jul-23 22:32N 41°48' W 071°23'0 0.0
2014-Jul-23 21:33N 41°48' W 071°23'0 0.1
2014-Jul-23 20:34N 41°48' W 071°23'0 0.0
2014-Jul-23 19:34N 41°48' W 071°23'0 0.0
2014-Jul-23 17:17N 41°48' W 071°23'0 0.0
2014-Jul-23 16:32N 41°48' W 071°23'0 0.0
2014-Jul-23 15:30N 41°48' W 071°23'0 0.0
2014-Jul-23 14:30N 41°48' W 071°23'0 0.0
2014-Jul-23 12:27N 41°48' W 071°23'0 0.0
2014-Jul-23 10:29N 41°48' W 071°23'0 0.0
2014-Jul-23 07:33N 41°48' W 071°23'0 0.0
2014-Jul-23 06:33N 41°48' W 071°23'0 0.0
2014-Jul-23 05:27N 41°48' W 071°23'0 0.0
2014-Jul-23 04:33N 41°48' W 071°23'0 0.0
2014-Jul-23 03:32N 41°48' W 071°23'0 0.0
2014-Jul-23 02:33N 41°48' W 071°23'0 0.0
2014-Jul-23 01:33N 41°48' W 071°23'0 0.0
2014-Jul-23 00:33N 41°48' W 071°23'0 0.0
2014-Jul-22 23:33N 41°48' W 071°23'0 0.0
2014-Jul-22 22:31N 41°48' W 071°23'2 1.7
2014-Jul-22 21:33N 41°47' W 071°22'6 5.8
2014-Jul-22 20:33N 41°41' W 071°19'7 6.6
2014-Jul-22 19:33N 41°35' W 071°19'5 4.8
2014-Jul-22 18:33N 41°30' W 071°21'5 5.4
2014-Jul-22 17:33N 41°25' W 071°24'7 7.0
2014-Jul-22 16:33N 41°18' W 071°26'7 6.6
2014-Jul-22 15:28N 41°12' W 071°29'6 6.2
2014-Jul-22 14:34N 41°07' W 071°33'7 6.5
2014-Jul-22 13:33N 41°02' W 071°39'6 6.5
2014-Jul-22 12:34N 40°58' W 071°45'6 6.4
2014-Jul-22 11:34N 40°53' W 071°51'6 6.3
2014-Jul-22 10:34N 40°48' W 071°57'7 6.5
2014-Jul-22 09:33N 40°44' W 072°03'7 6.6
2014-Jul-22 08:33N 40°39' W 072°09'7 6.6
2014-Jul-22 07:33N 40°34' W 072°15'7 6.5
2014-Jul-22 06:34N 40°30' W 072°21'6 6.4
2014-Jul-22 05:34N 40°25' W 072°27'6 6.4
2014-Jul-22 04:34N 40°21' W 072°33'6 6.3
2014-Jul-22 03:33N 40°16' W 072°39'7 6.5
2014-Jul-22 02:33N 40°12' W 072°45'7 6.9
2014-Jul-22 01:34N 40°07' W 072°51'7 7.1
2014-Jul-22 00:33N 40°02' W 072°58'7 7.0
2014-Jul-21 23:34N 39°57' W 073°05'7 7.2
2014-Jul-21 22:33N 39°52' W 073°12'7 6.7
2014-Jul-21 21:31N 39°48' W 073°18'6 6.3
2014-Jul-21 20:34N 39°44' W 073°25'2 6.5
2014-Jul-21 20:18N 39°43' W 073°26'5 6.6
2014-Jul-21 19:32N 39°40' W 073°31'6 6.4
2014-Jul-21 18:33N 39°35' W 073°37'6 6.1
2014-Jul-21 17:33N 39°31' W 073°43'6 6.0
2014-Jul-21 16:34N 39°27' W 073°48'6 5.9
2014-Jul-21 15:32N 39°23' W 073°54'6 6.0
2014-Jul-21 14:27N 39°18' W 073°60'  

Dump ship's entire track history